Time;durP1;ratioP1;P1;durP2;ratioP2;P2;SDS_P1;SDS_P2;PMS_P1;PMS_P2;Temp;Humidity;BMP_temperature;BMP_pressure;BME280_temperature;BME280_humidity;BME280_pressure;Samples;Min_cycle;Max_cycle;Signal;HPM_P1;HPM_P2
2022/07/29 00:00:01;;;;;;;3.20;2.90;;;;;;;;;;5106366;28;24418;-46
2022/07/29 00:02:26;;;;;;;2.72;2.50;;;;;;;;;;5092670;28;24428;-46
2022/07/29 00:04:51;;;;;;;2.80;2.60;;;;;;;;;;5101299;28;24422;-46
2022/07/29 00:07:16;;;;;;;2.60;2.40;;;;;;;;;;5102560;28;24997;-45
2022/07/29 00:09:42;;;;;;;4.15;2.72;;;;;;;;;;5103051;28;24419;-46
2022/07/29 00:12:07;;;;;;;2.50;2.30;;;;;;;;;;5092425;28;24748;-45
2022/07/29 00:14:32;;;;;;;3.40;2.60;;;;;;;;;;5104853;28;24421;-46
2022/07/29 00:16:57;;;;;;;2.67;2.40;;;;;;;;;;5105313;28;24428;-46
2022/07/29 00:19:22;;;;;;;2.70;2.40;;;;;;;;;;5104726;28;24504;-46
2022/07/29 00:21:47;;;;;;;3.03;2.40;;;;;;;;;;5096193;28;24442;-46
2022/07/29 00:24:13;;;;;;;2.73;2.53;;;;;;;;;;5086680;28;25241;-45
2022/07/29 00:26:38;;;;;;;3.60;2.60;;;;;;;;;;5088494;28;24453;-46
2022/07/29 00:29:04;;;;;;;2.55;2.17;;;;;;;;;;5096632;28;24453;-46
2022/07/29 00:31:29;;;;;;;2.60;2.40;;;;;;;;;;5088768;28;24501;-46
2022/07/29 00:33:54;;;;;;;2.88;2.50;;;;;;;;;;5101796;28;24421;-46
2022/07/29 00:36:20;;;;;;;3.30;3.00;;;;;;;;;;5105108;28;25026;-46
2022/07/29 00:38:46;;;;;;;2.90;2.55;;;;;;;;;;5096832;28;25041;-46
2022/07/29 00:41:11;;;;;;;2.90;2.50;;;;;;;;;;5095717;28;24528;-46
2022/07/29 00:43:37;;;;;;;4.60;2.60;;;;;;;;;;5094825;28;24425;-46
2022/07/29 00:46:02;;;;;;;3.75;2.80;;;;;;;;;;5104414;28;24474;-45
2022/07/29 00:48:27;;;;;;;2.83;2.58;;;;;;;;;;5104110;28;24490;-46
2022/07/29 00:50:52;;;;;;;3.00;2.70;;;;;;;;;;5091996;28;25007;-46
2022/07/29 00:53:19;;;;;;;3.07;2.77;;;;;;;;;;5096034;28;24505;-46
2022/07/29 00:55:44;;;;;;;4.10;2.90;;;;;;;;;;5089842;28;25031;-45
2022/07/29 00:58:11;;;;;;;3.50;2.80;;;;;;;;;;5095705;28;21295;-46
2022/07/29 01:00:37;;;;;;;3.90;3.10;;;;;;;;;;5095125;28;24420;-46
2022/07/29 01:03:02;;;;;;;5.10;3.20;;;;;;;;;;5093730;28;24474;-46
2022/07/29 01:05:27;;;;;;;3.03;2.80;;;;;;;;;;5103653;28;24418;-46
2022/07/29 01:07:53;;;;;;;3.40;3.10;;;;;;;;;;5098994;28;24453;-47
2022/07/29 01:10:19;;;;;;;4.10;3.40;;;;;;;;;;5104968;28;24442;-47
2022/07/29 01:12:46;;;;;;;3.88;3.47;;;;;;;;;;5101136;28;24471;-45
2022/07/29 01:15:11;;;;;;;3.80;3.40;;;;;;;;;;5092832;28;24447;-46
2022/07/29 01:17:40;;;;;;;4.70;3.50;;;;;;;;;;5089053;28;24456;-46
2022/07/29 01:20:12;;;;;;;5.40;3.80;;;;;;;;;;5086340;28;24397;-45
2022/07/29 01:22:46;;;;;;;4.60;4.10;;;;;;;;;;5101430;28;24440;-44
2022/07/29 01:25:30;;;;;;;4.20;3.60;;;;;;;;;;5090816;28;24560;-45
2022/07/29 01:28:17;;;;;;;4.70;3.73;;;;;;;;;;5098705;28;24976;-46
2022/07/29 01:30:44;;;;;;;3.90;3.50;;;;;;;;;;5097529;28;24519;-46
2022/07/29 01:33:11;;;;;;;3.90;3.60;;;;;;;;;;5103521;28;25047;-47
2022/07/29 01:35:39;;;;;;;3.60;3.30;;;;;;;;;;5088308;28;24429;-47
2022/07/29 01:38:13;;;;;;;4.80;3.47;;;;;;;;;;5091432;28;24507;-45
2022/07/29 01:40:56;;;;;;;3.60;3.30;;;;;;;;;;5105125;28;24762;-45
2022/07/29 01:43:26;;;;;;;4.90;3.60;;;;;;;;;;5099924;28;24477;-46
2022/07/29 01:46:01;;;;;;;4.50;3.70;;;;;;;;;;5101084;28;24424;-46
2022/07/29 01:48:34;;;;;;;4.57;3.70;;;;;;;;;;5098939;28;24444;-46
2022/07/29 01:51:05;;;;;;;3.95;3.65;;;;;;;;;;5090709;28;24453;-46
2022/07/29 01:53:49;;;;;;;4.90;4.15;;;;;;;;;;5087349;28;24433;-46
2022/07/29 01:56:16;;;;;;;5.60;4.75;;;;;;;;;;5088647;28;24448;-47
2022/07/29 01:58:42;;;;;;;6.25;4.50;;;;;;;;;;5090316;28;24441;-46
2022/07/29 02:01:09;;;;;;;5.70;4.40;;;;;;;;;;5104730;28;24836;-46
2022/07/29 02:03:35;;;;;;;5.13;4.63;;;;;;;;;;5099920;28;24560;-46
2022/07/29 02:06:01;;;;;;;5.18;4.68;;;;;;;;;;5096992;28;24443;-46
2022/07/29 02:08:26;;;;;;;6.32;4.60;;;;;;;;;;5091138;28;24414;-46
2022/07/29 02:10:52;;;;;;;5.00;4.50;;;;;;;;;;5098571;28;24436;-46
2022/07/29 02:13:18;;;;;;;6.50;5.00;;;;;;;;;;5103153;28;24475;-46
2022/07/29 02:15:44;;;;;;;7.95;5.82;;;;;;;;;;5094992;28;24426;-46
2022/07/29 02:18:12;;;;;;;9.90;8.90;;;;;;;;;;5101539;28;24506;-46
2022/07/29 02:20:38;;;;;;;12.48;11.30;;;;;;;;;;5085851;28;24982;-46
2022/07/29 02:23:04;;;;;;;16.00;14.30;;;;;;;;;;5094989;28;24433;-46
2022/07/29 02:25:29;;;;;;;16.13;14.63;;;;;;;;;;5101712;28;24437;-46
2022/07/29 02:27:54;;;;;;;15.83;14.33;;;;;;;;;;5092641;28;24460;-46
2022/07/29 02:30:21;;;;;;;18.30;16.50;;;;;;;;;;5093975;28;24792;-46
2022/07/29 02:32:48;;;;;;;18.60;16.80;;;;;;;;;;5106391;28;25024;-46
2022/07/29 02:35:14;;;;;;;17.63;15.82;;;;;;;;;;5106991;28;24410;-46
2022/07/29 02:37:40;;;;;;;17.57;15.83;;;;;;;;;;5104376;28;24421;-46
2022/07/29 02:40:08;;;;;;;17.95;16.15;;;;;;;;;;5094537;28;24849;-46
2022/07/29 02:42:33;;;;;;;18.20;16.30;;;;;;;;;;5090686;28;25251;-45
2022/07/29 02:44:58;;;;;;;19.20;17.30;;;;;;;;;;5101242;28;24870;-45
2022/07/29 02:47:26;;;;;;;18.50;16.50;;;;;;;;;;5092436;28;24733;-46
2022/07/29 02:49:56;;;;;;;16.67;15.18;;;;;;;;;;5101466;28;24481;-46
2022/07/29 02:52:21;;;;;;;17.95;16.15;;;;;;;;;;5093855;28;24430;-45
2022/07/29 02:54:53;;;;;;;17.67;16.13;;;;;;;;;;5102901;28;24424;-45
2022/07/29 02:57:21;;;;;;;17.70;16.20;;;;;;;;;;5106231;28;24567;-45
2022/07/29 02:59:48;;;;;;;17.88;16.27;;;;;;;;;;5096924;28;24462;-44
2022/07/29 03:02:13;;;;;;;17.35;15.65;;;;;;;;;;5104122;28;24602;-45
2022/07/29 03:04:41;;;;;;;16.20;14.77;;;;;;;;;;5107231;28;24512;-46
2022/07/29 03:07:06;;;;;;;17.13;15.43;;;;;;;;;;5095936;28;24418;-45
2022/07/29 03:09:32;;;;;;;16.67;15.13;;;;;;;;;;5098048;28;24464;-45
2022/07/29 03:11:57;;;;;;;17.57;15.87;;;;;;;;;;5106277;28;24489;-46
2022/07/29 03:14:23;;;;;;;17.10;15.30;;;;;;;;;;5102137;28;24418;-46
2022/07/29 03:16:48;;;;;;;16.50;14.90;;;;;;;;;;5096190;28;24562;-46
2022/07/29 03:19:14;;;;;;;17.17;15.48;;;;;;;;;;5103607;28;24433;-46
2022/07/29 03:21:39;;;;;;;16.23;14.73;;;;;;;;;;5105793;28;24432;-45
2022/07/29 03:24:04;;;;;;;15.65;14.15;;;;;;;;;;5107006;28;24425;-46
2022/07/29 03:26:29;;;;;;;16.00;14.40;;;;;;;;;;5097572;28;24429;-46
2022/07/29 03:28:55;;;;;;;15.90;14.30;;;;;;;;;;5102974;28;24504;-46
2022/07/29 03:31:20;;;;;;;15.27;13.93;;;;;;;;;;5099720;28;24486;-45
2022/07/29 03:33:45;;;;;;;18.58;16.67;;;;;;;;;;5093610;28;24459;-46
2022/07/29 03:36:10;;;;;;;20.40;18.60;;;;;;;;;;5106668;28;24772;-45
2022/07/29 03:38:36;;;;;;;19.10;17.30;;;;;;;;;;5105070;28;24418;-45
2022/07/29 03:41:03;;;;;;;18.57;16.67;;;;;;;;;;5099371;28;24479;-45
2022/07/29 03:43:30;;;;;;;18.15;16.35;;;;;;;;;;5104851;28;24507;-46
2022/07/29 03:45:56;;;;;;;17.57;15.87;;;;;;;;;;5108492;28;24456;-45
2022/07/29 03:48:24;;;;;;;16.53;15.03;;;;;;;;;;5108054;28;24433;-45
2022/07/29 03:50:50;;;;;;;17.60;15.82;;;;;;;;;;5094218;28;24438;-44
2022/07/29 03:53:15;;;;;;;17.57;15.87;;;;;;;;;;5100456;28;24505;-46
2022/07/29 03:55:45;;;;;;;18.37;16.57;;;;;;;;;;5106650;28;24516;-45
2022/07/29 03:58:10;;;;;;;19.13;17.33;;;;;;;;;;5105532;28;24421;-46
2022/07/29 04:00:36;;;;;;;20.10;18.20;;;;;;;;;;5100197;28;24482;-46
2022/07/29 04:03:03;;;;;;;22.50;20.27;;;;;;;;;;5096916;28;24422;-45
2022/07/29 04:05:28;;;;;;;24.23;22.00;;;;;;;;;;5087665;28;24464;-46
2022/07/29 04:07:53;;;;;;;27.27;24.73;;;;;;;;;;5087802;28;24454;-45
2022/07/29 04:10:18;;;;;;;29.90;27.10;;;;;;;;;;5098044;28;24537;-44
2022/07/29 04:12:44;;;;;;;30.35;27.45;;;;;;;;;;5100216;28;25292;-47
2022/07/29 04:15:09;;;;;;;30.30;27.53;;;;;;;;;;5099717;28;24656;-45
2022/07/29 04:17:34;;;;;;;28.88;26.25;;;;;;;;;;5104197;28;24422;-44
2022/07/29 04:20:00;;;;;;;28.58;25.98;;;;;;;;;;5096051;28;24781;-45
2022/07/29 04:22:25;;;;;;;28.08;25.58;;;;;;;;;;5085923;28;24441;-47
2022/07/29 04:24:50;;;;;;;27.38;24.88;;;;;;;;;;5102030;28;24456;-47
2022/07/29 04:27:15;;;;;;;28.70;26.00;;;;;;;;;;5098979;28;24421;-46
2022/07/29 04:29:40;;;;;;;29.70;26.90;;;;;;;;;;5098329;28;24438;-46
2022/07/29 04:32:05;;;;;;;29.13;26.17;;;;;;;;;;5102092;28;24433;-46
2022/07/29 04:34:31;;;;;;;28.80;26.20;;;;;;;;;;5101290;28;24981;-46
2022/07/29 04:36:56;;;;;;;29.33;26.53;;;;;;;;;;5101742;28;24509;-46
2022/07/29 04:39:21;;;;;;;29.97;27.10;;;;;;;;;;5100092;28;24586;-46
2022/07/29 04:41:47;;;;;;;31.80;28.90;;;;;;;;;;5100038;28;24520;-46
2022/07/29 04:44:12;;;;;;;30.17;27.40;;;;;;;;;;5097623;28;24429;-46
2022/07/29 04:46:37;;;;;;;30.17;27.27;;;;;;;;;;5104779;28;24426;-46
2022/07/29 04:49:03;;;;;;;28.20;25.70;;;;;;;;;;5099068;28;24418;-46
2022/07/29 04:51:28;;;;;;;30.88;28.08;;;;;;;;;;5096217;28;25048;-44
2022/07/29 04:53:53;;;;;;;31.70;28.70;;;;;;;;;;5096339;28;24422;-45
2022/07/29 04:56:18;;;;;;;31.30;27.90;;;;;;;;;;5091969;28;24418;-46
2022/07/29 04:58:43;;;;;;;31.63;28.40;;;;;;;;;;5103930;28;24435;-45
2022/07/29 05:01:08;;;;;;;32.40;28.98;;;;;;;;;;5089889;28;24461;-45
2022/07/29 05:03:33;;;;;;;33.35;29.90;;;;;;;;;;5090538;28;24516;-45
2022/07/29 05:05:58;;;;;;;32.17;28.87;;;;;;;;;;5091538;28;24975;-45
2022/07/29 05:08:24;;;;;;;32.20;29.00;;;;;;;;;;5093267;28;24531;-44
2022/07/29 05:10:49;;;;;;;31.97;28.77;;;;;;;;;;5098054;28;24442;-45
2022/07/29 05:13:14;;;;;;;32.47;29.15;;;;;;;;;;5102496;28;24437;-45
2022/07/29 05:15:39;;;;;;;31.10;28.00;;;;;;;;;;5095384;28;24768;-45
2022/07/29 05:18:04;;;;;;;30.52;27.48;;;;;;;;;;5096504;28;24604;-45
2022/07/29 05:20:30;;;;;;;34.63;31.23;;;;;;;;;;5095826;28;24986;-45
2022/07/29 05:22:56;;;;;;;35.03;31.40;;;;;;;;;;5106570;28;24406;-44
2022/07/29 05:25:21;;;;;;;33.60;30.30;;;;;;;;;;5096396;28;24468;-44
2022/07/29 05:27:46;;;;;;;37.87;34.10;;;;;;;;;;5094659;28;24436;-45
2022/07/29 05:30:11;;;;;;;37.55;33.75;;;;;;;;;;5097031;28;24521;-45
2022/07/29 05:32:36;;;;;;;37.60;33.90;;;;;;;;;;5086327;28;25135;-45
2022/07/29 05:35:02;;;;;;;38.43;34.83;;;;;;;;;;5099094;28;24542;-45
2022/07/29 05:37:27;;;;;;;41.73;37.63;;;;;;;;;;5101099;28;24402;-45
2022/07/29 05:39:52;;;;;;;38.20;34.50;;;;;;;;;;5099175;28;24420;-45
2022/07/29 05:42:17;;;;;;;37.73;34.23;;;;;;;;;;5086919;28;25004;-45
2022/07/29 05:44:42;;;;;;;39.25;35.38;;;;;;;;;;5084925;28;24438;-45
2022/07/29 05:47:07;;;;;;;35.10;31.60;;;;;;;;;;5087739;28;24546;-45
2022/07/29 05:49:33;;;;;;;35.15;31.70;;;;;;;;;;5085430;28;24426;-45
2022/07/29 05:51:58;;;;;;;32.50;29.40;;;;;;;;;;5087942;28;24444;-45
2022/07/29 05:54:23;;;;;;;33.00;30.00;;;;;;;;;;5103231;28;24477;-45
2022/07/29 05:56:48;;;;;;;37.37;33.67;;;;;;;;;;5095849;28;24413;-45
2022/07/29 05:59:13;;;;;;;35.38;31.75;;;;;;;;;;5099308;28;24429;-45
2022/07/29 06:01:39;;;;;;;37.35;33.83;;;;;;;;;;5094028;28;24445;-45
2022/07/29 06:04:05;;;;;;;39.80;35.97;;;;;;;;;;5095992;28;25193;-45
2022/07/29 06:06:30;;;;;;;37.20;33.60;;;;;;;;;;5104858;28;24425;-44
2022/07/29 06:08:55;;;;;;;38.93;35.30;;;;;;;;;;5107239;28;24491;-45
2022/07/29 06:11:20;;;;;;;39.63;35.73;;;;;;;;;;5094227;28;24430;-46
2022/07/29 06:13:46;;;;;;;36.67;33.08;;;;;;;;;;5100903;28;24417;-46
2022/07/29 06:16:11;;;;;;;37.38;33.67;;;;;;;;;;5094981;28;24460;-46
2022/07/29 06:18:36;;;;;;;37.45;33.97;;;;;;;;;;5092673;28;24444;-46
2022/07/29 06:21:06;;;;;;;42.15;38.15;;;;;;;;;;5094307;28;24433;-44
2022/07/29 06:23:31;;;;;;;43.97;39.55;;;;;;;;;;5105747;28;24580;-45
2022/07/29 06:25:57;;;;;;;38.30;34.70;;;;;;;;;;5101248;28;25213;-45
2022/07/29 06:28:22;;;;;;;36.00;32.50;;;;;;;;;;5086186;28;24433;-45
2022/07/29 06:30:47;;;;;;;37.95;34.30;;;;;;;;;;5096221;28;24430;-45
2022/07/29 06:33:16;;;;;;;39.10;35.20;;;;;;;;;;5105257;28;24491;-45
2022/07/29 06:35:41;;;;;;;40.40;36.30;;;;;;;;;;5091048;28;24883;-44
2022/07/29 06:38:07;;;;;;;39.33;35.42;;;;;;;;;;5101311;28;24433;-46
2022/07/29 06:43:15;;;;;;;35.20;31.80;;;;;;;;;;5104152;28;24404;-45
2022/07/29 06:45:42;;;;;;;37.42;33.85;;;;;;;;;;5100548;28;24433;-45
2022/07/29 06:48:07;;;;;;;35.17;31.77;;;;;;;;;;5091668;28;24487;-46
2022/07/29 06:50:33;;;;;;;35.07;31.67;;;;;;;;;;5094697;28;24909;-45
2022/07/29 06:52:58;;;;;;;34.40;31.20;;;;;;;;;;5106167;28;25118;-46
2022/07/29 06:55:23;;;;;;;36.85;33.35;;;;;;;;;;5103649;28;24429;-45
2022/07/29 06:57:48;;;;;;;33.65;30.50;;;;;;;;;;5098510;28;24432;-46
2022/07/29 07:00:13;;;;;;;35.73;32.27;;;;;;;;;;5087017;28;25158;-45
2022/07/29 07:02:39;;;;;;;34.70;31.30;;;;;;;;;;5089766;28;24474;-46
2022/07/29 07:05:05;;;;;;;34.90;31.30;;;;;;;;;;5086188;28;24422;-46
2022/07/29 07:07:30;;;;;;;37.20;33.85;;;;;;;;;;5093219;28;25004;-45
2022/07/29 07:09:55;;;;;;;36.90;33.10;;;;;;;;;;5104758;28;24426;-45
2022/07/29 07:12:20;;;;;;;38.80;34.97;;;;;;;;;;5106350;28;25169;-45
2022/07/29 07:14:45;;;;;;;33.33;30.30;;;;;;;;;;5101685;28;25018;-45
2022/07/29 07:17:10;;;;;;;32.70;29.70;;;;;;;;;;5108635;28;26140;-45
2022/07/29 07:19:36;;;;;;;32.10;28.90;;;;;;;;;;5103258;28;24525;-45
2022/07/29 07:22:01;;;;;;;31.80;28.70;;;;;;;;;;5096222;28;24542;-45
2022/07/29 07:24:26;;;;;;;31.45;28.60;;;;;;;;;;5087244;28;24402;-46
2022/07/29 07:26:51;;;;;;;33.73;30.57;;;;;;;;;;5088204;28;24422;-46
2022/07/29 07:29:16;;;;;;;29.73;27.13;;;;;;;;;;5096859;27;24535;-46
2022/07/29 07:31:41;;;;;;;30.20;27.30;;;;;;;;;;5106873;28;24520;-46
2022/07/29 07:34:06;;;;;;;34.08;30.90;;;;;;;;;;5108543;28;24473;-46
2022/07/29 07:36:32;;;;;;;30.05;27.05;;;;;;;;;;5108233;28;24425;-45
2022/07/29 07:38:57;;;;;;;28.50;25.93;;;;;;;;;;5108186;28;24966;-46
2022/07/29 07:41:22;;;;;;;28.30;25.70;;;;;;;;;;5108262;28;24498;-45
2022/07/29 07:43:47;;;;;;;30.85;27.88;;;;;;;;;;5108405;28;24408;-45
2022/07/29 07:46:12;;;;;;;31.73;28.83;;;;;;;;;;5108436;28;24406;-45
2022/07/29 07:48:38;;;;;;;30.02;27.33;;;;;;;;;;5108442;28;24429;-46
2022/07/29 07:51:03;;;;;;;36.63;32.88;;;;;;;;;;5106203;28;24433;-45
2022/07/29 07:53:29;;;;;;;29.90;27.10;;;;;;;;;;5107736;28;24432;-45
2022/07/29 07:55:54;;;;;;;30.20;27.40;;;;;;;;;;5107789;28;24916;-45
2022/07/29 07:58:20;;;;;;;32.07;29.17;;;;;;;;;;5107668;28;24520;-45
2022/07/29 08:00:45;;;;;;;31.53;28.73;;;;;;;;;;5108143;28;24939;-46
2022/07/29 08:03:12;;;;;;;27.92;25.33;;;;;;;;;;5107305;28;24470;-44
2022/07/29 08:05:38;;;;;;;26.15;23.70;;;;;;;;;;5102341;28;24894;-46
2022/07/29 08:08:03;;;;;;;24.10;22.10;;;;;;;;;;5086917;28;24417;-46
2022/07/29 08:13:12;;;;;;;23.00;20.90;;;;;;;;;;5087250;28;24843;-46
2022/07/29 08:15:38;;;;;;;20.50;18.50;;;;;;;;;;5087581;28;24426;-45
2022/07/29 08:18:03;;;;;;;20.77;18.70;;;;;;;;;;5087575;28;24567;-45
2022/07/29 08:20:29;;;;;;;20.30;18.50;;;;;;;;;;5087382;28;24487;-45
2022/07/29 08:22:54;;;;;;;20.80;18.90;;;;;;;;;;5106726;28;24414;-45
2022/07/29 08:25:20;;;;;;;21.05;19.08;;;;;;;;;;5107724;28;24462;-45
2022/07/29 08:27:46;;;;;;;17.70;16.00;;;;;;;;;;5107299;28;24394;-46
2022/07/29 08:30:11;;;;;;;18.90;17.20;;;;;;;;;;5107314;28;24483;-45
2022/07/29 08:32:36;;;;;;;19.50;17.60;;;;;;;;;;5107471;28;24460;-45
2022/07/29 08:35:01;;;;;;;18.00;16.40;;;;;;;;;;5106738;28;24441;-45
2022/07/29 08:37:26;;;;;;;18.27;16.47;;;;;;;;;;5107542;28;24402;-46
2022/07/29 08:39:51;;;;;;;17.30;15.70;;;;;;;;;;5105597;28;24416;-45
2022/07/29 08:42:17;;;;;;;16.20;14.90;;;;;;;;;;5107318;28;24390;-44
2022/07/29 08:44:42;;;;;;;16.63;15.23;;;;;;;;;;5106952;28;24927;-45
2022/07/29 08:47:07;;;;;;;14.97;13.57;;;;;;;;;;5107521;28;24414;-45
2022/07/29 08:49:33;;;;;;;15.17;13.77;;;;;;;;;;5106952;28;24475;-44
2022/07/29 08:51:59;;;;;;;14.77;13.45;;;;;;;;;;5106875;28;24842;-46
2022/07/29 08:54:25;;;;;;;15.80;14.25;;;;;;;;;;5106733;28;24390;-45
2022/07/29 08:56:50;;;;;;;15.27;13.87;;;;;;;;;;5105696;28;24977;-45
2022/07/29 08:59:16;;;;;;;16.10;14.60;;;;;;;;;;5106623;28;24470;-45
2022/07/29 09:01:43;;;;;;;16.75;15.15;;;;;;;;;;5107096;28;24413;-45
2022/07/29 09:04:10;;;;;;;16.08;14.57;;;;;;;;;;5106726;28;24469;-45
2022/07/29 09:06:38;;;;;;;13.70;12.40;;;;;;;;;;5106543;28;24390;-46
2022/07/29 09:09:03;;;;;;;15.27;13.73;;;;;;;;;;5106839;28;24809;-45
2022/07/29 09:11:29;;;;;;;14.97;13.67;;;;;;;;;;5106822;28;24425;-45
2022/07/29 09:13:54;;;;;;;15.65;14.13;;;;;;;;;;5103009;28;24784;-45
2022/07/29 09:16:19;;;;;;;15.23;13.83;;;;;;;;;;5107063;28;24874;-45
2022/07/29 09:18:45;;;;;;;15.30;13.90;;;;;;;;;;5106457;28;24886;-47
2022/07/29 09:24:06;;;;;;;15.48;13.98;;;;;;;;;;5106749;28;24397;-45
2022/07/29 09:26:32;;;;;;;15.30;13.83;;;;;;;;;;5106516;28;24425;-46
2022/07/29 09:28:58;;;;;;;16.23;14.63;;;;;;;;;;5106571;28;24976;-46
2022/07/29 09:31:32;;;;;;;15.23;13.82;;;;;;;;;;5104643;28;25262;-46
2022/07/29 09:33:59;;;;;;;16.50;15.00;;;;;;;;;;5107073;28;24408;-46
2022/07/29 09:36:25;;;;;;;15.60;14.10;;;;;;;;;;5110495;28;24531;-45
2022/07/29 09:39:00;;;;;;;16.30;14.70;;;;;;;;;;5111152;28;24481;-45
2022/07/29 09:41:25;;;;;;;15.02;13.63;;;;;;;;;;5110262;28;24423;-45
2022/07/29 09:43:55;;;;;;;16.93;15.30;;;;;;;;;;5110572;28;24448;-46
2022/07/29 09:46:20;;;;;;;15.93;14.52;;;;;;;;;;5110387;28;24772;-46
2022/07/29 09:49:05;;;;;;;16.10;14.60;;;;;;;;;;5108966;28;25054;-45
2022/07/29 09:51:30;;;;;;;15.48;14.07;;;;;;;;;;5110535;28;24544;-44
2022/07/29 09:53:55;;;;;;;15.68;14.10;;;;;;;;;;5107699;28;24524;-45
2022/07/29 09:56:37;;;;;;;15.37;13.87;;;;;;;;;;5110503;28;24397;-46
2022/07/29 09:59:06;;;;;;;15.07;13.70;;;;;;;;;;5110374;28;24401;-46
2022/07/29 10:01:31;;;;;;;15.07;13.77;;;;;;;;;;5109915;28;24393;-46
2022/07/29 10:03:57;;;;;;;15.03;13.73;;;;;;;;;;5110585;28;24531;-46
2022/07/29 10:06:22;;;;;;;15.60;14.00;;;;;;;;;;5108296;28;24413;-46
2022/07/29 10:08:49;;;;;;;15.40;13.90;;;;;;;;;;5110743;28;24488;-45
2022/07/29 10:11:15;;;;;;;14.35;13.05;;;;;;;;;;5109976;28;24417;-44
2022/07/29 10:13:41;;;;;;;12.93;11.82;;;;;;;;;;5109540;27;24405;-43
2022/07/29 10:16:06;;;;;;;11.60;10.50;;;;;;;;;;5110802;28;24812;-44
2022/07/29 10:18:31;;;;;;;11.60;10.50;;;;;;;;;;5109770;28;24390;-45
2022/07/29 10:20:57;;;;;;;12.57;11.27;;;;;;;;;;5110248;28;24396;-46
2022/07/29 10:23:22;;;;;;;10.57;9.47;;;;;;;;;;5108894;28;24962;-45
2022/07/29 10:25:47;;;;;;;6.97;5.90;;;;;;;;;;5108321;28;25005;-44
2022/07/29 10:28:13;;;;;;;5.90;5.40;;;;;;;;;;5110156;28;24548;-46
2022/07/29 10:30:39;;;;;;;4.90;4.40;;;;;;;;;;5109755;28;24951;-45
2022/07/29 10:33:04;;;;;;;5.70;4.50;;;;;;;;;;5109632;28;24600;-46
2022/07/29 10:35:43;;;;;;;4.45;4.15;;;;;;;;;;5110015;28;24378;-45
2022/07/29 10:38:27;;;;;;;5.80;4.47;;;;;;;;;;5110023;28;25003;-46
2022/07/29 10:41:26;;;;;;;4.75;4.32;;;;;;;;;;5108025;28;24462;-45
2022/07/29 10:43:52;;;;;;;4.22;3.83;;;;;;;;;;5108953;28;24939;-45
2022/07/29 10:46:18;;;;;;;3.90;3.60;;;;;;;;;;5109003;28;25045;-45
2022/07/29 10:49:04;;;;;;;3.70;3.40;;;;;;;;;;5109539;28;24477;-45
2022/07/29 10:51:50;;;;;;;3.60;3.30;;;;;;;;;;5109264;28;24441;-45
2022/07/29 10:54:16;;;;;;;3.45;3.20;;;;;;;;;;5108982;28;24406;-45
2022/07/29 10:56:42;;;;;;;3.40;3.20;;;;;;;;;;5109076;28;24413;-46
2022/07/29 10:59:26;;;;;;;4.00;3.53;;;;;;;;;;5107776;28;24548;-46
2022/07/29 11:01:51;;;;;;;3.80;3.50;;;;;;;;;;5109109;28;24496;-45
2022/07/29 11:04:36;;;;;;;3.40;3.20;;;;;;;;;;5108717;28;24478;-46
2022/07/29 11:07:04;;;;;;;3.72;3.42;;;;;;;;;;5108929;28;24772;-46
2022/07/29 11:09:30;;;;;;;3.90;3.20;;;;;;;;;;5108764;28;24439;-45
2022/07/29 11:11:55;;;;;;;3.80;3.50;;;;;;;;;;5109115;28;24467;-46
2022/07/29 11:14:40;;;;;;;3.70;3.40;;;;;;;;;;5108472;28;24950;-45
2022/07/29 11:17:07;;;;;;;3.50;3.30;;;;;;;;;;5107076;27;24405;-45
2022/07/29 11:19:32;;;;;;;3.90;3.60;;;;;;;;;;5109004;28;24398;-46
2022/07/29 11:21:58;;;;;;;3.90;3.58;;;;;;;;;;5108369;28;24774;-45
2022/07/29 11:24:27;;;;;;;3.80;3.50;;;;;;;;;;5108081;27;24574;-45
2022/07/29 11:27:27;;;;;;;3.60;3.40;;;;;;;;;;5109077;28;24390;-44
2022/07/29 11:29:53;;;;;;;3.90;3.60;;;;;;;;;;5025602;28;24511;-44
2022/07/29 11:32:19;;;;;;;4.10;3.70;;;;;;;;;;5089947;28;24533;-44
2022/07/29 11:34:45;;;;;;;3.43;3.23;;;;;;;;;;5106506;28;24963;-45
2022/07/29 11:37:11;;;;;;;4.28;3.97;;;;;;;;;;5108847;28;24543;-45
2022/07/29 11:39:37;;;;;;;4.38;4.07;;;;;;;;;;5101344;28;24982;-45
2022/07/29 11:42:20;;;;;;;4.03;3.70;;;;;;;;;;5108193;28;24736;-46
2022/07/29 11:44:56;;;;;;;4.10;3.80;;;;;;;;;;5107966;28;24394;-46
2022/07/29 11:47:21;;;;;;;4.20;3.80;;;;;;;;;;5108317;28;24400;-47
2022/07/29 11:49:47;;;;;;;4.13;3.83;;;;;;;;;;5108185;28;24500;-45
2022/07/29 11:52:12;;;;;;;4.40;4.10;;;;;;;;;;5106623;28;25105;-46
2022/07/29 11:54:39;;;;;;;5.03;3.90;;;;;;;;;;5107756;28;24782;-45
2022/07/29 11:57:06;;;;;;;4.00;3.70;;;;;;;;;;5107274;28;24389;-45
2022/07/29 11:59:31;;;;;;;4.40;4.10;;;;;;;;;;5108092;28;24851;-46
2022/07/29 12:01:57;;;;;;;3.90;3.60;;;;;;;;;;5107873;28;24923;-45
2022/07/29 12:04:26;;;;;;;3.97;3.67;;;;;;;;;;5107510;28;24932;-45
2022/07/29 12:06:52;;;;;;;4.57;4.28;;;;;;;;;;5107932;28;24760;-46
2022/07/29 12:09:17;;;;;;;4.30;4.00;;;;;;;;;;5105825;28;24440;-45
2022/07/29 12:11:43;;;;;;;4.10;3.80;;;;;;;;;;5107696;28;24985;-45
2022/07/29 12:14:08;;;;;;;4.87;4.37;;;;;;;;;;5107632;28;24538;-46
2022/07/29 12:16:37;;;;;;;6.53;4.80;;;;;;;;;;5104713;28;24388;-46
2022/07/29 12:19:02;;;;;;;4.95;4.60;;;;;;;;;;5107888;28;24408;-45
2022/07/29 12:21:28;;;;;;;4.70;4.30;;;;;;;;;;5107995;28;24392;-45
2022/07/29 12:23:54;;;;;;;5.07;4.68;;;;;;;;;;5107542;28;24924;-45
2022/07/29 12:26:19;;;;;;;5.00;4.60;;;;;;;;;;5105733;28;24481;-46
2022/07/29 12:28:44;;;;;;;4.60;4.20;;;;;;;;;;5106940;28;24864;-46
2022/07/29 12:31:13;;;;;;;3.90;3.60;;;;;;;;;;5107707;28;24417;-46
2022/07/29 12:33:38;;;;;;;4.30;4.00;;;;;;;;;;5107392;28;24539;-46
2022/07/29 12:36:04;;;;;;;4.20;3.90;;;;;;;;;;5106999;28;24562;-44
2022/07/29 12:38:29;;;;;;;4.50;4.10;;;;;;;;;;5107345;28;24396;-45
2022/07/29 12:40:54;;;;;;;4.60;4.00;;;;;;;;;;5107383;28;24413;-45
2022/07/29 12:43:20;;;;;;;4.20;3.90;;;;;;;;;;5106313;28;24950;-45
2022/07/29 12:45:47;;;;;;;5.20;4.70;;;;;;;;;;5105939;28;24421;-45
2022/07/29 12:48:12;;;;;;;4.60;4.30;;;;;;;;;;5107391;28;24432;-45
2022/07/29 12:50:58;;;;;;;4.90;4.40;;;;;;;;;;5106809;28;24510;-45
2022/07/29 12:53:23;;;;;;;5.30;4.90;;;;;;;;;;5106779;28;24948;-45
2022/07/29 12:55:51;;;;;;;4.80;4.40;;;;;;;;;;5106806;28;24451;-45
2022/07/29 12:58:30;;;;;;;4.35;4.05;;;;;;;;;;5107097;28;24394;-45
2022/07/29 13:01:07;;;;;;;4.40;4.00;;;;;;;;;;5106806;28;24406;-45
2022/07/29 13:03:46;;;;;;;4.40;4.10;;;;;;;;;;5106804;28;24869;-46
2022/07/29 13:06:27;;;;;;;4.05;3.80;;;;;;;;;;5104770;28;24413;-46
2022/07/29 13:08:59;;;;;;;3.75;3.55;;;;;;;;;;5106230;28;24418;-46
2022/07/29 13:11:50;;;;;;;4.03;3.70;;;;;;;;;;5106667;28;24466;-46
2022/07/29 13:14:35;;;;;;;4.60;4.20;;;;;;;;;;5103320;28;24764;-46
2022/07/29 13:17:00;;;;;;;3.83;3.55;;;;;;;;;;5106400;28;24977;-46
2022/07/29 13:19:52;;;;;;;4.40;3.80;;;;;;;;;;5105074;28;24781;-46
2022/07/29 13:22:19;;;;;;;3.90;3.60;;;;;;;;;;5103102;28;24410;-45
2022/07/29 13:24:57;;;;;;;3.63;3.33;;;;;;;;;;5106393;28;24489;-46
2022/07/29 13:27:23;;;;;;;3.70;3.42;;;;;;;;;;5105771;28;24482;-45
2022/07/29 13:29:51;;;;;;;4.07;3.77;;;;;;;;;;5106720;28;24465;-45
2022/07/29 13:32:16;;;;;;;4.07;3.78;;;;;;;;;;5106549;28;24413;-45
2022/07/29 13:34:41;;;;;;;4.07;3.63;;;;;;;;;;5106206;28;24405;-45
2022/07/29 13:37:06;;;;;;;4.50;4.10;;;;;;;;;;5098309;28;24948;-44
2022/07/29 13:39:32;;;;;;;4.07;3.78;;;;;;;;;;5101304;28;24471;-45
2022/07/29 13:41:57;;;;;;;4.00;3.70;;;;;;;;;;5106617;28;25029;-45
2022/07/29 13:44:22;;;;;;;3.83;3.53;;;;;;;;;;5106671;28;24397;-46
2022/07/29 13:46:47;;;;;;;3.95;3.70;;;;;;;;;;5106213;28;24422;-46
2022/07/29 13:49:12;;;;;;;4.20;3.80;;;;;;;;;;5106347;28;24575;-45
2022/07/29 13:51:38;;;;;;;4.30;3.90;;;;;;;;;;5106143;28;24485;-45
2022/07/29 13:54:03;;;;;;;4.10;3.80;;;;;;;;;;5104245;28;24499;-45
2022/07/29 13:56:28;;;;;;;4.30;4.00;;;;;;;;;;5104510;28;24400;-45
2022/07/29 13:58:53;;;;;;;4.27;3.87;;;;;;;;;;5106242;28;24393;-45
2022/07/29 14:01:18;;;;;;;4.57;4.27;;;;;;;;;;5106612;28;24955;-45
2022/07/29 14:03:44;;;;;;;3.88;3.58;;;;;;;;;;5106007;28;24512;-45
2022/07/29 14:06:09;;;;;;;4.20;3.90;;;;;;;;;;5105973;28;24483;-45
2022/07/29 14:08:34;;;;;;;3.50;3.20;;;;;;;;;;5106145;28;24408;-46
2022/07/29 14:10:59;;;;;;;4.65;4.22;;;;;;;;;;5105906;28;24763;-45
2022/07/29 14:13:24;;;;;;;4.00;3.80;;;;;;;;;;5104818;28;24421;-45
2022/07/29 14:15:49;;;;;;;4.40;4.10;;;;;;;;;;5105751;28;24402;-46
2022/07/29 14:18:15;;;;;;;3.90;3.70;;;;;;;;;;5105676;28;24418;-46
2022/07/29 14:20:40;;;;;;;3.80;3.60;;;;;;;;;;5107765;28;25293;-45
2022/07/29 14:23:05;;;;;;;4.40;4.10;;;;;;;;;;5109345;28;24408;-45
2022/07/29 14:25:30;;;;;;;4.40;4.10;;;;;;;;;;5110015;28;24796;-45
2022/07/29 14:27:55;;;;;;;4.30;4.00;;;;;;;;;;5109458;28;24450;-45
2022/07/29 14:30:20;;;;;;;4.30;4.00;;;;;;;;;;5107926;28;24418;-45
2022/07/29 14:32:46;;;;;;;4.20;3.90;;;;;;;;;;5109817;28;24806;-46
2022/07/29 14:35:11;;;;;;;3.87;3.60;;;;;;;;;;5109504;28;24389;-45